createdAt,value
2019-05-10T00:00:43.719Z,99792.47
2019-05-10T00:06:04.843Z,99792.02
2019-05-10T00:11:33.557Z,99788.91
2019-05-10T00:16:37.882Z,99778.48
2019-05-10T00:21:41.094Z,99778.29
2019-05-10T00:26:44.260Z,99787.84
2019-05-10T00:31:46.865Z,99785.38
2019-05-10T00:36:50.262Z,99782.36
2019-05-10T00:41:53.709Z,99780.70
2019-05-10T00:46:56.632Z,99778.13
2019-05-10T00:51:59.632Z,99782.57
2019-05-10T00:57:02.797Z,99778.22
2019-05-10T01:02:05.359Z,99784.11
2019-05-10T01:07:08.706Z,99786.37
2019-05-10T01:12:12.059Z,99793.34
2019-05-10T01:17:15.554Z,99786.59
2019-05-10T01:22:18.481Z,99797.39
2019-05-10T01:27:21.426Z,99803.30
2019-05-10T01:32:24.244Z,99816.84
2019-05-10T01:37:27.201Z,99812.73
2019-05-10T01:42:30.382Z,99819.25
2019-05-10T01:47:35.087Z,99818.38
2019-05-10T01:52:38.347Z,99817.53
2019-05-10T01:57:41.064Z,99810.71
2019-05-10T02:02:44.666Z,99813.30
2019-05-10T02:07:47.570Z,99816.13
2019-05-10T02:12:51.242Z,99813.31
2019-05-10T02:17:54.649Z,99819.25
2019-05-10T02:22:57.611Z,99814.72
2019-05-10T02:28:00.824Z,99828.62
2019-05-10T02:33:04.183Z,99832.67
2019-05-10T02:38:07.039Z,99836.08
2019-05-10T02:43:10.667Z,99842.89
2019-05-10T02:48:14.157Z,99848.86
2019-05-10T02:53:17.577Z,99851.70
2019-05-10T02:58:20.505Z,99851.83
2019-05-10T03:03:28.211Z,99865.41
2019-05-10T03:08:48.325Z,99860.16
2019-05-10T03:13:52.145Z,99868.41
2019-05-10T03:18:56.060Z,99872.05
2019-05-10T03:23:59.260Z,99880.03
2019-05-10T03:29:02.080Z,99883.90
2019-05-10T03:34:05.049Z,99888.27
2019-05-10T03:39:08.387Z,99891.16
2019-05-10T03:44:11.606Z,99894.66
2019-05-10T03:49:14.630Z,99890.35
2019-05-10T03:54:17.323Z,99893.28
2019-05-10T03:59:20.514Z,99892.68
2019-05-10T04:04:23.415Z,99901.23
2019-05-10T04:09:26.791Z,99899.52
2019-05-10T04:14:30.040Z,99903.47
2019-05-10T04:19:33.454Z,99917.30
2019-05-10T04:24:37.185Z,99915.34
2019-05-10T04:29:42.134Z,99914.19
2019-05-10T04:34:45.337Z,99932.16
2019-05-10T04:39:48.944Z,99930.02
2019-05-10T04:44:53.408Z,99934.98
2019-05-10T04:49:56.921Z,99939.61
2019-05-10T04:54:59.975Z,99950.45
2019-05-10T05:00:02.780Z,99950.20
2019-05-10T05:05:06.034Z,99954.09
2019-05-10T05:10:09.136Z,99959.17
2019-05-10T05:15:13.728Z,99956.61
2019-05-10T05:20:16.996Z,99955.16
2019-05-10T05:25:22.143Z,99968.07
2019-05-10T05:30:26.073Z,99965.52
2019-05-10T05:35:29.307Z,99964.57
2019-05-10T05:40:32.141Z,99972.92
2019-05-10T05:45:35.664Z,99979.34
2019-05-10T05:50:39.057Z,99991.16
2019-05-10T05:55:42.244Z,99991.13
2019-05-10T06:00:46.558Z,99992.78
2019-05-10T06:05:49.759Z,100000.75
2019-05-10T06:10:57.761Z,100005.59
2019-05-10T06:16:00.064Z,100023.82
2019-05-10T06:21:02.585Z,100021.02
2019-05-10T06:26:06.210Z,100029.86
2019-05-10T06:31:10.274Z,100028.13
2019-05-10T06:36:13.634Z,100045.13
2019-05-10T06:41:19.117Z,100048.28
2019-05-10T06:46:23.585Z,100044.30
2019-05-10T06:51:27.797Z,100045.19
2019-05-10T06:56:30.960Z,100046.31
2019-05-10T07:01:38.503Z,100045.67
2019-05-10T07:06:40.377Z,100050.79
2019-05-10T07:11:43.750Z,100058.89
2019-05-10T07:16:48.528Z,100044.53
2019-05-10T07:21:52.014Z,100044.26
2019-05-10T07:26:56.489Z,100045.14
2019-05-10T07:32:00.690Z,100048.23
2019-05-10T07:37:03.715Z,100059.19
2019-05-10T07:42:09.037Z,100053.08
2019-05-10T07:47:11.980Z,100060.71
2019-05-10T07:52:15.211Z,100071.77
2019-05-10T07:57:24.108Z,100075.80
2019-05-10T08:02:23.434Z,100085.66
2019-05-10T08:07:29.256Z,100082.72
2019-05-10T08:12:35.130Z,100085.25
2019-05-10T08:17:41.017Z,100090.09
2019-05-10T08:22:45.953Z,100091.86
2019-05-10T08:27:50.528Z,100102.94
2019-05-10T08:32:52.704Z,100110.78
2019-05-10T08:37:56.269Z,100129.31
2019-05-10T08:43:04.822Z,100130.16
2019-05-10T08:48:07.068Z,100137.37
2019-05-10T08:53:16.082Z,100134.00
2019-05-10T08:58:23.909Z,100134.78
2019-05-10T09:03:22.730Z,100152.54
2019-05-10T09:08:28.549Z,100163.59
2019-05-10T09:13:37.239Z,100166.37
2019-05-10T09:18:41.380Z,100167.20
2019-05-10T09:23:42.860Z,100182.88
2019-05-10T09:28:57.574Z,100182.20
2019-05-10T09:34:01.955Z,100191.23
2019-05-10T09:39:09.221Z,100203.78
2019-05-10T09:44:13.075Z,100207.05
2019-05-10T09:49:18.567Z,100202.27
2019-05-10T09:54:23.137Z,100213.48
2019-05-10T09:59:27.828Z,100217.58
2019-05-10T10:04:30.962Z,100225.84
2019-05-10T10:09:41.964Z,100228.66
2019-05-10T10:14:43.139Z,100241.45
2019-05-10T10:19:43.938Z,100243.36
2019-05-10T10:24:48.928Z,100254.65
2019-05-10T10:29:52.565Z,100262.20
2019-05-10T10:34:57.687Z,100276.96
2019-05-10T10:40:05.489Z,100292.03
2019-05-10T10:45:07.411Z,100294.72
2019-05-10T10:50:13.404Z,100303.34
2019-05-10T10:55:18.693Z,100300.47
2019-05-10T11:00:32.919Z,100305.36
2019-05-10T11:05:36.430Z,100303.07
2019-05-10T11:10:40.480Z,100311.52
2019-05-10T11:15:43.958Z,100310.69
2019-05-10T11:20:49.319Z,100317.94
2019-05-10T11:25:56.495Z,100319.63
2019-05-10T11:30:56.684Z,100327.39
2019-05-10T11:36:04.059Z,100327.52
2019-05-10T11:41:06.989Z,100343.66
2019-05-10T11:46:08.757Z,100345.86
2019-05-10T11:51:17.133Z,100350.45
2019-05-10T11:56:16.528Z,100356.94
2019-05-10T12:01:22.220Z,100362.69
2019-05-10T12:06:25.488Z,100365.83
2019-05-10T12:11:33.556Z,100363.95
2019-05-10T12:16:33.783Z,100366.13
2019-05-10T12:21:36.761Z,100377.33
2019-05-10T12:31:47.616Z,100383.22
2019-05-10T12:36:51.981Z,100392.79
2019-05-10T12:41:55.441Z,100398.22
2019-05-10T12:47:01.162Z,100406.22
2019-05-10T12:52:03.472Z,100417.63
2019-05-10T12:57:07.045Z,100428.27
2019-05-10T13:02:11.213Z,100432.34
2019-05-10T13:07:14.533Z,100442.16
2019-05-10T13:12:17.875Z,100442.89
2019-05-10T13:17:21.076Z,100443.98
2019-05-10T13:22:24.644Z,100456.01
2019-05-10T13:27:29.250Z,100461.30
2019-05-10T13:32:32.037Z,100475.88
2019-05-10T13:37:35.467Z,100492.09
2019-05-10T13:42:43.387Z,100500.63
2019-05-10T13:47:43.922Z,100503.02
2019-05-10T13:52:46.850Z,100517.46
2019-05-10T13:57:53.876Z,100525.81
2019-05-10T14:02:55.734Z,100527.73
2019-05-10T14:07:58.913Z,100529.55
2019-05-10T14:13:04.123Z,100539.00
2019-05-10T14:18:07.300Z,100549.17
2019-05-10T14:23:11.249Z,100558.59
2019-05-10T14:28:15.616Z,100568.22
2019-05-10T14:33:19.575Z,100577.25
2019-05-10T14:38:23.300Z,100574.66
2019-05-10T14:43:26.789Z,100576.74
2019-05-10T14:48:31.195Z,100586.22
2019-05-10T14:53:35.788Z,100587.09
2019-05-10T14:58:38.991Z,100585.63
2019-05-10T15:03:46.105Z,100587.20
2019-05-10T15:08:47.685Z,100596.92
2019-05-10T15:13:51.315Z,100597.59
2019-05-10T15:18:55.027Z,100607.14
2019-05-10T15:24:00.976Z,100605.92
2019-05-10T15:29:03.582Z,100615.12
2019-05-10T15:34:06.873Z,100630.48
2019-05-10T15:39:10.200Z,100628.81
2019-05-10T15:44:13.539Z,100625.54
2019-05-10T15:49:22.735Z,100637.66
2019-05-10T15:54:21.560Z,100646.52
2019-05-10T15:59:25.123Z,100648.60
2019-05-10T16:04:27.660Z,100651.87
2019-05-10T16:09:30.776Z,100649.73
2019-05-10T16:14:39.111Z,100653.14
2019-05-10T16:19:39.369Z,100660.81
2019-05-10T16:24:42.892Z,100666.69
2019-05-10T16:29:46.648Z,100678.09
2019-05-10T16:34:49.561Z,100683.47
2019-05-10T16:39:53.189Z,100687.50
2019-05-10T16:44:56.738Z,100690.04
2019-05-10T16:50:00.323Z,100692.97
2019-05-10T16:55:05.411Z,100697.53
2019-05-10T17:00:10.663Z,100697.68
2019-05-10T17:05:15.541Z,100697.66
2019-05-10T17:10:19.655Z,100701.61
2019-05-10T17:15:23.183Z,100699.05
2019-05-10T17:20:26.367Z,100707.11
2019-05-10T17:25:29.714Z,100712.70
2019-05-10T17:30:33.012Z,100713.52
2019-05-10T17:35:36.656Z,100720.83
2019-05-10T17:40:42.275Z,100712.75
2019-05-10T17:45:46.689Z,100728.24
2019-05-10T17:50:50.233Z,100732.94
2019-05-10T17:55:55.749Z,100734.75
2019-05-10T18:00:58.492Z,100731.20
2019-05-10T18:06:02.078Z,100738.94
2019-05-10T18:11:06.473Z,100746.38
2019-05-10T18:16:11.006Z,100760.97
2019-05-10T18:21:15.793Z,100762.02
2019-05-10T18:26:19.439Z,100772.63
2019-05-10T18:31:23.129Z,100776.23
2019-05-10T18:36:49.954Z,100774.67
2019-05-10T18:41:31.295Z,100783.85
2019-05-10T18:46:34.078Z,100776.69
2019-05-10T18:51:37.031Z,100779.54
2019-05-10T18:56:40.594Z,100782.71
2019-05-10T19:01:44.116Z,100777.56
2019-05-10T19:06:49.990Z,100783.39
2019-05-10T19:11:54.181Z,100790.98
2019-05-10T19:16:57.706Z,100802.05
2019-05-10T19:22:03.157Z,100807.98
2019-05-10T19:27:09.128Z,100818.48
2019-05-10T19:32:18.223Z,100828.84
2019-05-10T19:37:28.854Z,100834.46
2019-05-10T19:42:23.023Z,100838.68
2019-05-10T19:47:26.273Z,100841.44
2019-05-10T19:52:29.200Z,100840.98
2019-05-10T19:57:32.441Z,100843.40
2019-05-10T20:02:36.355Z,100847.56
2019-05-10T20:07:45.869Z,100850.08
2019-05-10T20:12:45.066Z,100853.91
2019-05-10T20:17:48.476Z,100852.30
2019-05-10T20:22:52.303Z,100859.56
2019-05-10T20:27:55.650Z,100869.19
2019-05-10T20:32:59.252Z,100875.51
2019-05-10T20:38:02.735Z,100874.34
2019-05-10T20:43:05.287Z,100877.55
2019-05-10T20:48:08.636Z,100881.80
2019-05-10T20:53:11.506Z,100877.55
2019-05-10T20:58:14.696Z,100886.61
2019-05-10T21:03:18.233Z,100889.62
2019-05-10T21:08:21.436Z,100892.34
2019-05-10T21:13:25.168Z,100892.97
2019-05-10T21:18:28.493Z,100894.75
2019-05-10T21:23:32.150Z,100892.97
2019-05-10T21:28:35.099Z,100889.41
2019-05-10T21:33:38.598Z,100903.08
2019-05-10T21:38:41.955Z,100909.05
2019-05-10T21:43:45.322Z,100907.23
2019-05-10T21:48:48.840Z,100915.22
2019-05-10T21:53:52.625Z,100914.22
2019-05-10T21:58:55.832Z,100921.91
2019-05-10T22:03:59.104Z,100919.45
2019-05-10T22:09:02.174Z,100922.48
2019-05-10T22:14:05.025Z,100926.34
2019-05-10T22:19:08.640Z,100928.36
2019-05-10T22:24:11.635Z,100930.52
2019-05-10T22:29:15.191Z,100937.90
2019-05-10T22:34:18.064Z,100948.38
2019-05-10T22:39:21.639Z,100948.43
2019-05-10T22:44:25.267Z,100953.34
2019-05-10T22:49:28.599Z,100957.67
2019-05-10T22:54:33.709Z,100964.74
2019-05-10T22:59:37.313Z,100973.94
2019-05-10T23:04:40.451Z,100969.45
2019-05-10T23:09:43.976Z,100979.84
2019-05-10T23:14:47.260Z,100971.64
2019-05-10T23:19:50.213Z,100963.52
2019-05-10T23:24:53.643Z,100963.55
2019-05-10T23:29:56.835Z,100966.81
2019-05-10T23:35:01.063Z,100962.72
2019-05-10T23:40:04.559Z,100961.91
2019-05-10T23:45:08.537Z,100972.23
2019-05-10T23:50:12.179Z,100967.41
2019-05-10T23:55:15.442Z,100970.98
